Cosco Indonesia — VRHE3 — position and weather

sailwx.info

Track history (hours):
 
Tides and Currents Weather Stations Pressure Air Temp Water Temp Dewpoint Dewpoint Depression Visibility Wind Speed Wind Dir Waves Ship Positions

Cosco Indonesia

Last reported at 2018-Jan-19 15:28 UTC. Time now 2018-Jan-19 15:57 UTC.
Position N 40°41' W 074°09'.

Length 334 m; draft 12.8 m.

Type: Ship (hazmat cat A). MMSI: 477831200.

Date/timePositionNaut miles runAvg speedWind from/ knotsBaromVisibWave heightAir tempDewpointWater temp
2018-Jan-19 15:28N 40°41' W 074°09'0 0.0
2018-Jan-19 14:59N 40°41' W 074°09'0 0.0
2018-Jan-19 14:28N 40°41' W 074°09'0 0.0
2018-Jan-19 13:55N 40°41' W 074°09'0 0.0
2018-Jan-19 13:29N 40°41' W 074°09'0 0.0
2018-Jan-19 12:59N 40°41' W 074°09'0 0.0
2018-Jan-19 12:28N 40°41' W 074°09'0 0.0
2018-Jan-19 11:58N 40°41' W 074°09'0 0.0
2018-Jan-19 11:28N 40°41' W 074°09'0 0.0
2018-Jan-19 10:58N 40°41' W 074°09'0 0.0
2018-Jan-19 10:28N 40°41' W 074°09'0 0.0
2018-Jan-19 09:58N 40°41' W 074°09'0 0.0
2018-Jan-19 09:28N 40°41' W 074°09'0 0.0
2018-Jan-19 08:58N 40°41' W 074°09'0 0.0
2018-Jan-19 08:29N 40°41' W 074°09'0 0.0
2018-Jan-19 07:59N 40°41' W 074°09'0 0.0
2018-Jan-19 07:29N 40°41' W 074°09'0 0.0
2018-Jan-19 06:58N 40°41' W 074°09'0 0.0
2018-Jan-19 06:28N 40°41' W 074°09'0 0.0
2018-Jan-19 05:59N 40°41' W 074°09'0 0.0
2018-Jan-19 05:29N 40°41' W 074°09'0 0.0
2018-Jan-19 04:58N 40°41' W 074°09'0 0.0
2018-Jan-19 04:28N 40°41' W 074°09'0 0.0
2018-Jan-19 03:58N 40°41' W 074°09'0 0.0
2018-Jan-19 03:29N 40°41' W 074°09'0 0.0
2018-Jan-19 02:58N 40°41' W 074°09'0 0.1
2018-Jan-19 02:28N 40°41' W 074°09'0 0.0
2018-Jan-19 01:58N 40°41' W 074°09'0 0.0
2018-Jan-19 01:28N 40°41' W 074°09'0 0.0
2018-Jan-19 00:58N 40°41' W 074°09'0 0.0
2018-Jan-19 00:28N 40°41' W 074°09'0 0.0
2018-Jan-18 23:58N 40°41' W 074°09'0 0.0
2018-Jan-18 23:29N 40°41' W 074°09'0 0.0
2018-Jan-18 22:58N 40°41' W 074°09'0 0.0
2018-Jan-18 22:29N 40°41' W 074°09'0 0.0
2018-Jan-18 21:59N 40°41' W 074°09'0 0.0
2018-Jan-18 21:28N 40°41' W 074°09'0 0.0
2018-Jan-18 20:56N 40°41' W 074°09'0 0.0
2018-Jan-18 20:28N 40°41' W 074°09'0 0.0
2018-Jan-18 19:56N 40°41' W 074°09'0 0.1
2018-Jan-18 19:28N 40°41' W 074°09'0 0.0
2018-Jan-18 18:59N 40°41' W 074°09'0 0.0
2018-Jan-18 18:28N 40°41' W 074°09'0 0.0
2018-Jan-18 17:58N 40°41' W 074°09'0 0.0
2018-Jan-18 17:29N 40°41' W 074°09'0 0.0
2018-Jan-18 16:55N 40°41' W 074°09'0 0.0
2018-Jan-18 16:29N 40°41' W 074°09'0 0.0
2018-Jan-18 15:58N 40°41' W 074°09'0 0.0
2018-Jan-18 15:29N 40°41' W 074°09'0 0.0
2018-Jan-18 14:58N 40°41' W 074°09'0 0.0
2018-Jan-18 14:29N 40°41' W 074°09'0 0.0
2018-Jan-18 13:59N 40°41' W 074°09'0 0.0
2018-Jan-18 13:25N 40°41' W 074°09'0 0.0
2018-Jan-18 12:58N 40°41' W 074°09'0 0.0
2018-Jan-18 12:28N 40°41' W 074°09'0 0.0
2018-Jan-18 11:59N 40°41' W 074°09'0 0.0
2018-Jan-18 11:30N 40°41' W 074°09'1 1.1
2018-Jan-18 11:00N 40°40' W 074°08'2 3.6
2018-Jan-18 10:30N 40°39' W 074°09'3 5.9
2018-Jan-18 10:00N 40°39' W 074°05'3 6.3
2018-Jan-18 09:30N 40°37' W 074°03'2 4.5
2018-Jan-18 09:00N 40°34' W 074°02'3 6.7
2018-Jan-18 08:29N 40°31' W 073°60'4 7.9
2018-Jan-18 07:59N 40°29' W 073°55'4 8.0
2018-Jan-18 07:30N 40°28' W 073°51'14 7.0
2018-Jan-18 05:30N 40°14' W 073°46'4713.1
2018-Jan-18 01:56N 39°28' W 073°41'613.2
2018-Jan-18 01:28N 39°21' W 073°41'713.1
2018-Jan-18 00:57N 39°15' W 073°40'1313.9
2018-Jan-18 00:01N 39°02' W 073°40'114.4
2018-Jan-17 23:56N 39°00' W 073°40'  
Track history (hours):
 
Tides and Currents Weather Stations Pressure Air Temp Water Temp Dewpoint Dewpoint Depression Visibility Wind Speed Wind Dir Waves Ship Positions

Cosco Indonesia

Last reported at 2018-Jan-19 15:28 UTC. Time now 2018-Jan-19 15:57 UTC.
Position N 40°41' W 074°09'.

Length 334 m; draft 12.8 m.

Type: Ship (hazmat cat A). MMSI: 477831200.

Date/timePositionNaut miles runAvg speedWind from/ knotsBaromVisibWave heightAir tempDewpointWater temp
2018-Jan-19 15:28N 40°41' W 074°09'0 0.0
2018-Jan-19 14:59N 40°41' W 074°09'0 0.0
2018-Jan-19 14:28N 40°41' W 074°09'0 0.0
2018-Jan-19 13:55N 40°41' W 074°09'0 0.0
2018-Jan-19 13:29N 40°41' W 074°09'0 0.0
2018-Jan-19 12:59N 40°41' W 074°09'0 0.0
2018-Jan-19 12:28N 40°41' W 074°09'0 0.0
2018-Jan-19 11:58N 40°41' W 074°09'0 0.0
2018-Jan-19 11:28N 40°41' W 074°09'0 0.0
2018-Jan-19 10:58N 40°41' W 074°09'0 0.0
2018-Jan-19 10:28N 40°41' W 074°09'0 0.0
2018-Jan-19 09:58N 40°41' W 074°09'0 0.0
2018-Jan-19 09:28N 40°41' W 074°09'0 0.0
2018-Jan-19 08:58N 40°41' W 074°09'0 0.0
2018-Jan-19 08:29N 40°41' W 074°09'0 0.0
2018-Jan-19 07:59N 40°41' W 074°09'0 0.0
2018-Jan-19 07:29N 40°41' W 074°09'0 0.0
2018-Jan-19 06:58N 40°41' W 074°09'0 0.0
2018-Jan-19 06:28N 40°41' W 074°09'0 0.0
2018-Jan-19 05:59N 40°41' W 074°09'0 0.0
2018-Jan-19 05:29N 40°41' W 074°09'0 0.0
2018-Jan-19 04:58N 40°41' W 074°09'0 0.0
2018-Jan-19 04:28N 40°41' W 074°09'0 0.0
2018-Jan-19 03:58N 40°41' W 074°09'0 0.0
2018-Jan-19 03:29N 40°41' W 074°09'0 0.0
2018-Jan-19 02:58N 40°41' W 074°09'0 0.1
2018-Jan-19 02:28N 40°41' W 074°09'0 0.0
2018-Jan-19 01:58N 40°41' W 074°09'0 0.0
2018-Jan-19 01:28N 40°41' W 074°09'0 0.0
2018-Jan-19 00:58N 40°41' W 074°09'0 0.0
2018-Jan-19 00:28N 40°41' W 074°09'0 0.0
2018-Jan-18 23:58N 40°41' W 074°09'0 0.0
2018-Jan-18 23:29N 40°41' W 074°09'0 0.0
2018-Jan-18 22:58N 40°41' W 074°09'0 0.0
2018-Jan-18 22:29N 40°41' W 074°09'0 0.0
2018-Jan-18 21:59N 40°41' W 074°09'0 0.0
2018-Jan-18 21:28N 40°41' W 074°09'0 0.0
2018-Jan-18 20:56N 40°41' W 074°09'0 0.0
2018-Jan-18 20:28N 40°41' W 074°09'0 0.0
2018-Jan-18 19:56N 40°41' W 074°09'0 0.1
2018-Jan-18 19:28N 40°41' W 074°09'0 0.0
2018-Jan-18 18:59N 40°41' W 074°09'0 0.0
2018-Jan-18 18:28N 40°41' W 074°09'0 0.0
2018-Jan-18 17:58N 40°41' W 074°09'0 0.0
2018-Jan-18 17:29N 40°41' W 074°09'0 0.0
2018-Jan-18 16:55N 40°41' W 074°09'0 0.0
2018-Jan-18 16:29N 40°41' W 074°09'0 0.0
2018-Jan-18 15:58N 40°41' W 074°09'0 0.0
2018-Jan-18 15:29N 40°41' W 074°09'0 0.0
2018-Jan-18 14:58N 40°41' W 074°09'0 0.0
2018-Jan-18 14:29N 40°41' W 074°09'0 0.0
2018-Jan-18 13:59N 40°41' W 074°09'0 0.0
2018-Jan-18 13:25N 40°41' W 074°09'0 0.0
2018-Jan-18 12:58N 40°41' W 074°09'0 0.0
2018-Jan-18 12:28N 40°41' W 074°09'0 0.0
2018-Jan-18 11:59N 40°41' W 074°09'0 0.0
2018-Jan-18 11:30N 40°41' W 074°09'1 1.1
2018-Jan-18 11:00N 40°40' W 074°08'2 3.6
2018-Jan-18 10:30N 40°39' W 074°09'3 5.9
2018-Jan-18 10:00N 40°39' W 074°05'3 6.3
2018-Jan-18 09:30N 40°37' W 074°03'2 4.5
2018-Jan-18 09:00N 40°34' W 074°02'3 6.7
2018-Jan-18 08:29N 40°31' W 073°60'4 7.9
2018-Jan-18 07:59N 40°29' W 073°55'4 8.0
2018-Jan-18 07:30N 40°28' W 073°51'14 7.0
2018-Jan-18 05:30N 40°14' W 073°46'4713.1
2018-Jan-18 01:56N 39°28' W 073°41'613.2
2018-Jan-18 01:28N 39°21' W 073°41'713.1
2018-Jan-18 00:57N 39°15' W 073°40'1313.9
2018-Jan-18 00:01N 39°02' W 073°40'114.4
2018-Jan-17 23:56N 39°00' W 073°40'  

Dump ship's entire track history